Time;durP1;ratioP1;P1;durP2;ratioP2;P2;SDS_P1;SDS_P2;PMS_P1;PMS_P2;Temp;Humidity;BMP_temperature;BMP_pressure;BME280_temperature;BME280_humidity;BME280_pressure;Samples;Min_cycle;Max_cycle;Signal;HPM_P1;HPM_P2
2021/06/20 00:02:24;;;;;;;14.15;10.90;;;486.50;2380.80;;;;;;5074757;28;20394;-71
2021/06/20 00:04:49;;;;;;;15.30;11.15;;;486.40;2380.80;;;;;;5064076;28;20111;-72
2021/06/20 00:07:15;;;;;;;12.80;10.25;;;486.40;2380.80;;;;;;5074555;28;20052;-72
2021/06/20 00:09:41;;;;;;;17.23;11.32;;;486.40;2380.80;;;;;;5072727;28;20033;-72
2021/06/20 00:12:07;;;;;;;12.48;9.55;;;461.70;2380.80;;;;;;5074019;28;20548;-71
2021/06/20 00:14:33;;;;;;;13.43;10.10;;;461.70;2380.80;;;;;;5074253;28;20029;-70
2021/06/20 00:16:58;;;;;;;13.52;9.90;;;461.70;2380.80;;;;;;5064580;28;20415;-72
2021/06/20 00:19:24;;;;;;;13.07;8.80;;;461.70;2380.80;;;;;;5073068;28;20021;-71
2021/06/20 00:21:50;;;;;;;11.02;8.70;;;461.70;2380.80;;;;;;5070904;28;20028;-71
2021/06/20 00:24:15;;;;;;;10.80;9.15;;;461.70;2380.80;;;;;;5074540;28;20488;-71
2021/06/20 00:26:41;;;;;;;10.90;8.90;;;461.70;2380.80;;;;;;5073712;28;20099;-72
2021/06/20 00:29:07;;;;;;;10.65;8.75;;;461.70;2380.80;;;;;;5064204;28;20375;-71
2021/06/20 00:31:32;;;;;;;12.32;9.10;;;461.70;2380.80;;;;;;5074131;28;20272;-71
2021/06/20 00:33:58;;;;;;;14.48;9.13;;;461.70;2380.80;;;;;;5065463;28;20398;-73
2021/06/20 00:36:24;;;;;;;11.48;8.93;;;461.70;2380.80;;;;;;5074207;28;20052;-72
2021/06/20 00:38:50;;;;;;;13.68;9.52;;;461.70;2380.80;;;;;;5071264;28;20032;-71
2021/06/20 00:41:15;;;;;;;12.15;9.00;;;461.70;2380.80;;;;;;5074401;28;20027;-71
2021/06/20 00:43:41;;;;;;;12.18;9.70;;;461.70;2380.80;;;;;;5073486;28;20115;-74
2021/06/20 00:46:09;;;;;;;12.63;9.40;;;461.60;2380.80;;;;;;5064025;28;20020;-78
2021/06/20 00:48:35;;;;;;;11.55;8.93;;;461.60;2380.80;;;;;;5073843;28;20019;-71
2021/06/20 00:51:01;;;;;;;12.10;9.85;;;461.60;2380.80;;;;;;5057090;28;20476;-71
2021/06/20 00:53:27;;;;;;;13.30;10.05;;;461.50;2380.80;;;;;;5068998;28;20039;-71
2021/06/20 00:55:53;;;;;;;12.63;9.32;;;461.50;2380.80;;;;;;5065872;28;20037;-70
2021/06/20 00:58:21;;;;;;;20.60;10.35;;;461.50;2380.80;;;;;;5066552;28;20549;-71
2021/06/20 01:00:47;;;;;;;13.75;9.60;;;461.30;2380.80;;;;;;5071533;28;20025;-73
2021/06/20 01:03:13;;;;;;;15.63;10.77;;;461.30;2380.80;;;;;;5062839;28;20043;-75
2021/06/20 01:05:39;;;;;;;13.57;8.70;;;461.30;2380.80;;;;;;5073364;28;20024;-72
2021/06/20 01:08:05;;;;;;;11.30;8.65;;;461.30;2380.80;;;;;;5064061;28;20059;-76
2021/06/20 01:10:36;;;;;;;15.15;8.85;;;461.30;2380.80;;;;;;5073220;28;20476;-78
2021/06/20 01:13:08;;;;;;;10.90;8.98;;;461.30;2380.80;;;;;;5065740;28;20059;-72
2021/06/20 01:15:35;;;;;;;14.07;8.32;;;461.30;2380.80;;;;;;5073250;28;20040;-76
2021/06/20 01:18:01;;;;;;;11.70;8.02;;;461.30;2380.80;;;;;;5071359;28;20019;-71
2021/06/20 01:20:27;;;;;;;11.77;8.57;;;461.30;2380.80;;;;;;5067680;28;20363;-71
2021/06/20 01:22:53;;;;;;;13.02;8.48;;;461.10;2380.80;;;;;;5073211;28;20027;-71
2021/06/20 01:25:22;;;;;;;12.23;8.10;;;461.10;2380.80;;;;;;5057783;28;20036;-71
2021/06/20 01:27:53;;;;;;;13.15;7.55;;;461.10;2380.80;;;;;;5070585;28;20052;-71
2021/06/20 01:30:27;;;;;;;;;;;461.10;2380.80;;;;;;5065800;28;20013;-71
2021/06/20 01:32:54;;;;;;;9.50;7.18;;;461.10;2380.80;;;;;;5073093;28;19904;-71
2021/06/20 01:35:20;;;;;;;12.35;7.53;;;461.00;2380.80;;;;;;5070161;28;20103;-72
2021/06/20 01:37:46;;;;;;;13.43;8.30;;;460.90;2380.80;;;;;;5065386;28;20100;-73
2021/06/20 01:40:15;;;;;;;11.40;7.90;;;460.90;2380.80;;;;;;5072954;28;20478;-73
2021/06/20 01:42:41;;;;;;;12.98;7.82;;;460.90;2380.80;;;;;;5057286;28;20502;-75
2021/06/20 01:45:09;;;;;;;10.07;8.10;;;460.80;2380.80;;;;;;5072106;28;20074;-76
2021/06/20 01:47:35;;;;;;;11.30;8.60;;;436.10;2355.20;;;;;;5061568;28;20475;-71
2021/06/20 01:50:04;;;;;;;11.50;8.93;;;436.00;2355.20;;;;;;5070603;28;20074;-72
2021/06/20 01:52:30;;;;;;;18.83;10.20;;;436.00;2355.20;;;;;;5070491;28;20085;-74
2021/06/20 01:54:56;;;;;;;12.45;9.75;;;435.90;2355.20;;;;;;5054041;28;20124;-72
2021/06/20 01:57:35;;;;;;;13.70;9.80;;;435.90;2355.20;;;;;;5072269;28;20021;-78
2021/06/20 02:00:05;;;;;;;14.20;9.23;;;435.90;2355.20;;;;;;5059347;28;20025;-72
2021/06/20 02:02:31;;;;;;;13.07;9.63;;;435.90;2355.20;;;;;;5072645;28;20024;-77
2021/06/20 02:04:57;;;;;;;19.00;9.82;;;435.90;2355.20;;;;;;5062304;28;20639;-73
2021/06/20 02:07:27;;;;;;;15.80;9.98;;;435.80;2355.20;;;;;;5072826;28;20031;-79
2021/06/20 02:09:54;;;;;;;15.85;10.18;;;435.80;2355.20;;;;;;5068682;28;20483;-79
2021/06/20 02:12:22;;;;;;;14.15;9.60;;;435.70;2355.20;;;;;;5056187;28;20021;-83
2021/06/20 02:14:48;;;;;;;15.07;9.57;;;435.60;2355.20;;;;;;5072439;28;20035;-72
2021/06/20 02:17:34;;;;;;;12.02;9.48;;;435.70;2355.20;;;;;;5056432;28;20494;-71
2021/06/20 02:20:07;;;;;;;12.32;9.50;;;435.70;2355.20;;;;;;5072160;28;20127;-75
2021/06/20 02:22:34;;;;;;;13.43;8.68;;;435.70;2355.20;;;;;;5061838;28;20502;-77
2021/06/20 02:25:00;;;;;;;10.80;9.00;;;435.80;2355.20;;;;;;5072289;28;20035;-77
2021/06/20 02:27:26;;;;;;;10.80;8.27;;;435.80;2355.20;;;;;;5070713;28;20012;-73
2021/06/20 02:29:54;;;;;;;10.32;7.88;;;435.80;2355.20;;;;;;5057303;28;20059;-76
2021/06/20 02:32:22;;;;;;;11.05;7.72;;;435.90;2355.20;;;;;;5072315;28;20021;-74
2021/06/20 02:34:47;;;;;;;9.68;8.10;;;435.90;2355.20;;;;;;5058294;28;20052;-70
2021/06/20 02:37:15;;;;;;;12.82;8.02;;;435.90;2355.20;;;;;;5072513;28;20499;-75
2021/06/20 02:39:41;;;;;;;12.98;8.73;;;435.80;2355.20;;;;;;5059603;28;20048;-71
2021/06/20 02:42:08;;;;;;;19.23;13.30;;;436.00;2355.20;;;;;;5072114;28;20079;-71
2021/06/20 02:44:34;;;;;;;15.57;11.35;;;435.90;2355.20;;;;;;5067228;28;20032;-70
2021/06/20 02:47:01;;;;;;;14.30;10.88;;;436.00;2355.20;;;;;;5068473;28;20138;-73
2021/06/20 02:49:33;;;;;;;11.93;8.80;;;436.00;2355.20;;;;;;5072118;28;20020;-77
2021/06/20 02:51:59;;;;;;;10.60;8.73;;;436.00;2355.20;;;;;;5056006;28;20028;-81
2021/06/20 02:54:25;;;;;;;12.65;9.10;;;436.00;2355.20;;;;;;5072167;28;20407;-78
2021/06/20 02:56:51;;;;;;;11.25;8.65;;;435.90;2355.20;;;;;;5064145;28;20052;-72
2021/06/20 02:59:16;;;;;;;10.90;8.25;;;435.90;2355.20;;;;;;5072009;28;20075;-76
2021/06/20 03:01:42;;;;;;;12.65;8.68;;;435.90;2355.20;;;;;;5068768;28;20033;-72
2021/06/20 03:04:08;;;;;;;13.23;8.23;;;435.90;2355.20;;;;;;5058170;28;20025;-73
2021/06/20 03:06:34;;;;;;;11.63;8.45;;;435.90;2355.20;;;;;;5071961;28;20020;-79
2021/06/20 03:09:00;;;;;;;13.98;8.90;;;436.00;2355.20;;;;;;5039852;28;20024;-72
2021/06/20 03:11:26;;;;;;;12.32;8.50;;;436.00;2355.20;;;;;;5075517;28;20584;-76
2021/06/20 03:13:52;;;;;;;10.85;8.30;;;436.00;2355.20;;;;;;5064102;28;20021;-76
2021/06/20 03:16:20;;;;;;;13.35;8.73;;;435.90;2355.20;;;;;;5065846;28;20105;-71
2021/06/20 03:18:46;;;;;;;11.95;8.77;;;436.00;2355.20;;;;;;5074352;28;20154;-72
2021/06/20 03:21:14;;;;;;;13.30;9.13;;;436.10;2355.20;;;;;;5063932;28;20032;-74
2021/06/20 03:23:39;;;;;;;14.70;10.23;;;436.10;2355.20;;;;;;5075509;28;20029;-71
2021/06/20 03:26:05;;;;;;;13.85;10.20;;;436.10;2355.20;;;;;;5067749;28;20016;-77
2021/06/20 03:28:31;;;;;;;13.18;10.50;;;460.80;2380.80;;;;;;5075358;28;20103;-77
2021/06/20 03:30:56;;;;;;;14.38;10.07;;;460.90;2380.80;;;;;;5064735;28;20052;-77
2021/06/20 03:33:22;;;;;;;13.90;10.15;;;460.90;2380.80;;;;;;5075381;28;20024;-72
2021/06/20 03:35:48;;;;;;;16.13;10.30;;;460.90;2380.80;;;;;;5073326;28;20486;-78
2021/06/20 03:38:14;;;;;;;15.40;9.30;;;460.90;2380.80;;;;;;5059943;28;20025;-78
2021/06/20 03:40:40;;;;;;;11.57;9.45;;;460.90;2380.80;;;;;;5075228;28;20100;-81
2021/06/20 03:43:05;;;;;;;13.27;9.43;;;460.90;2380.80;;;;;;5067121;28;20124;-77
2021/06/20 03:45:31;;;;;;;11.18;9.02;;;461.10;2380.80;;;;;;5075051;28;20021;-79
2021/06/20 03:47:57;;;;;;;14.55;9.88;;;461.10;2380.80;;;;;;5067206;28;20368;-81
2021/06/20 03:50:25;;;;;;;12.07;9.00;;;461.20;2380.80;;;;;;5060589;28;20021;-81
2021/06/20 03:52:51;;;;;;;10.90;8.45;;;461.40;2380.80;;;;;;5074993;28;20352;-81
2021/06/20 03:55:16;;;;;;;11.55;8.73;;;461.40;2380.80;;;;;;5071110;28;20047;-77
2021/06/20 03:57:42;;;;;;;12.88;9.60;;;461.50;2380.80;;;;;;5074977;28;20032;-73
2021/06/20 04:00:11;;;;;;;11.63;8.30;;;461.60;2380.80;;;;;;5062710;28;20029;-76
2021/06/20 04:02:37;;;;;;;12.88;8.38;;;461.70;2380.80;;;;;;5074863;28;20766;-83
2021/06/20 04:05:04;;;;;;;10.02;7.38;;;486.40;2380.80;;;;;;5068848;28;20033;-79
2021/06/20 04:07:30;;;;;;;10.32;7.32;;;486.50;2380.80;;;;;;5072543;28;20483;-78
2021/06/20 04:09:56;;;;;;;9.98;6.82;;;486.60;2380.80;;;;;;5074789;28;20044;-83
2021/06/20 04:12:22;;;;;;;10.75;6.60;;;486.70;2380.80;;;;;;5066585;28;20023;-78
2021/06/20 04:14:47;;;;;;;11.48;6.68;;;486.60;2380.80;;;;;;5074908;28;20029;-75
2021/06/20 04:17:13;;;;;;;9.32;6.75;;;486.50;2380.80;;;;;;5064270;28;20092;-80
2021/06/20 04:19:40;;;;;;;9.10;6.75;;;486.50;2380.80;;;;;;5074940;28;20062;-76
2021/06/20 04:22:05;;;;;;;11.30;7.28;;;486.80;2380.80;;;;;;5071509;28;20113;-71
2021/06/20 04:24:31;;;;;;;13.48;7.72;;;486.90;2380.80;;;;;;5061032;28;20542;-81
2021/06/20 04:26:57;;;;;;;12.43;7.97;;;487.10;2380.80;;;;;;5056438;28;20118;-82
2021/06/20 04:29:23;;;;;;;8.63;7.07;;;487.10;2380.80;;;;;;5061848;28;20033;-76
2021/06/20 04:31:49;;;;;;;9.27;7.00;;;487.10;2380.80;;;;;;5074372;28;20378;-77
2021/06/20 04:34:14;;;;;;;10.10;7.50;;;487.20;2380.80;;;;;;5062601;28;20032;-79
2021/06/20 04:36:40;;;;;;;10.10;7.28;;;487.30;2380.80;;;;;;5073750;28;20028;-82
2021/06/20 04:39:08;;;;;;;10.23;7.20;;;487.30;2380.80;;;;;;5072164;28;20020;-77
2021/06/20 04:41:38;;;;;;;10.13;7.47;;;512.00;2380.80;;;;;;5069491;28;20050;-75
2021/06/20 04:44:07;;;;;;;11.07;8.60;;;487.30;2380.80;;;;;;5074153;28;20100;-76
2021/06/20 04:46:36;;;;;;;12.32;8.43;;;487.20;2380.80;;;;;;5064366;28;20082;-76
2021/06/20 04:49:06;;;;;;;11.27;8.75;;;487.30;2380.80;;;;;;5074363;28;20395;-78
2021/06/20 04:51:34;;;;;;;10.57;7.80;;;512.00;2380.80;;;;;;5066137;28;20082;-72
2021/06/20 04:53:59;;;;;;;9.52;7.47;;;512.10;2380.80;;;;;;5074106;28;20025;-71
2021/06/20 04:56:26;;;;;;;10.65;7.68;;;512.10;2380.80;;;;;;5073272;28;20463;-72
2021/06/20 04:58:52;;;;;;;10.02;7.80;;;512.30;2380.80;;;;;;5060031;28;20025;-80
2021/06/20 05:01:18;;;;;;;10.63;7.32;;;512.30;2380.80;;;;;;5073907;28;20039;-83
2021/06/20 05:03:44;;;;;;;9.68;6.97;;;512.40;2380.80;;;;;;5065449;28;20099;-78
2021/06/20 05:06:10;;;;;;;8.88;6.78;;;512.60;2380.80;;;;;;5073789;28;20158;-83
2021/06/20 05:08:35;;;;;;;8.65;5.93;;;512.60;2380.80;;;;;;5063457;28;20102;-72
2021/06/20 05:11:01;;;;;;;9.20;6.55;;;512.70;2380.80;;;;;;5061934;28;20092;-78
2021/06/20 05:13:27;;;;;;;7.82;6.40;;;512.80;2380.80;;;;;;5072357;28;20017;-73
2021/06/20 05:15:53;;;;;;;8.35;5.78;;;512.80;2380.80;;;;;;5070889;28;20123;-76
2021/06/20 05:18:19;;;;;;;9.02;6.00;;;537.60;2406.40;;;;;;5073467;28;20060;-81
2021/06/20 05:20:45;;;;;;;11.52;8.18;;;537.70;2406.40;;;;;;5061273;28;20100;-77
2021/06/20 05:23:10;;;;;;;30.02;18.05;;;537.80;2406.40;;;;;;5073143;28;20024;-75
2021/06/20 05:25:36;;;;;;;18.27;11.30;;;537.90;2406.40;;;;;;5067238;28;20040;-81
2021/06/20 05:28:02;;;;;;;12.45;7.90;;;537.90;2406.40;;;;;;5072183;28;20021;-73
2021/06/20 05:30:28;;;;;;;11.85;7.55;;;537.90;2406.40;;;;;;5073121;28;20028;-77
2021/06/20 05:32:54;;;;;;;8.43;6.72;;;538.00;2406.40;;;;;;5055109;28;20024;-82
2021/06/20 05:35:21;;;;;;;9.75;6.38;;;538.10;2406.40;;;;;;5073162;28;20025;-85
2021/06/20 05:37:47;;;;;;;9.60;6.22;;;538.10;2406.40;;;;;;5058845;28;20072;-75
2021/06/20 05:40:14;;;;;;;8.73;5.88;;;538.30;2406.40;;;;;;5072895;28;20383;-82
2021/06/20 05:42:40;;;;;;;7.72;5.63;;;538.40;2406.40;;;;;;5067515;28;20434;-76
2021/06/20 05:45:07;;;;;;;8.80;6.50;;;538.50;2406.40;;;;;;5057676;28;20017;-79
2021/06/20 05:47:33;;;;;;;8.50;6.07;;;563.40;2432.00;;;;;;5072909;28;20491;-84
2021/06/20 05:49:58;;;;;;;8.32;5.93;;;563.60;2432.00;;;;;;5069449;28;20021;-80
2021/06/20 05:52:24;;;;;;;12.13;10.32;;;563.90;2432.00;;;;;;5072867;28;20021;-82
2021/06/20 05:54:50;;;;;;;6.88;5.18;;;563.80;2432.00;;;;;;5062368;28;20032;-77
2021/06/20 05:57:20;;;;;;;7.28;5.45;;;564.00;2432.00;;;;;;5072722;28;20028;-82
2021/06/20 05:59:47;;;;;;;7.88;5.60;;;563.80;2432.00;;;;;;5068475;28;20029;-78
2021/06/20 06:02:13;;;;;;;9.27;5.50;;;563.80;2432.00;;;;;;5039238;28;20485;-78
2021/06/20 06:04:40;;;;;;;7.18;5.40;;;564.00;2432.00;;;;;;5072538;28;20107;-73
2021/06/20 06:07:06;;;;;;;8.75;5.68;;;588.90;2432.00;;;;;;5064519;28;20012;-83
2021/06/20 06:09:32;;;;;;;6.65;4.68;;;588.80;2432.00;;;;;;5054146;28;20031;-78
2021/06/20 06:11:58;;;;;;;7.72;5.10;;;589.00;2432.00;;;;;;5067051;28;20056;-79
2021/06/20 06:14:23;;;;;;;7.53;4.80;;;589.10;2432.00;;;;;;5072650;28;20027;-80
2021/06/20 06:16:50;;;;;;;6.03;4.68;;;588.90;2432.00;;;;;;5069656;28;20383;-80
2021/06/20 06:19:17;;;;;;;6.95;5.07;;;588.90;2432.00;;;;;;5070007;28;20043;-79
2021/06/20 06:21:43;;;;;;;5.75;4.25;;;589.10;2432.00;;;;;;5072577;28;20024;-74
2021/06/20 06:24:09;;;;;;;4.68;4.00;;;588.80;2432.00;;;;;;5069387;28;20021;-74
2021/06/20 06:26:36;;;;;;;5.97;4.03;;;589.30;2432.00;;;;;;5072195;28;20020;-73
2021/06/20 06:29:03;;;;;;;5.25;3.72;;;589.60;2432.00;;;;;;5062992;28;20029;-80
2021/06/20 06:31:30;;;;;;;4.85;4.20;;;614.40;2432.00;;;;;;5072462;28;20407;-77
2021/06/20 06:33:55;;;;;;;6.20;3.78;;;614.70;2432.00;;;;;;5070167;28;20052;-78
2021/06/20 06:36:21;;;;;;;5.05;4.00;;;614.90;2432.00;;;;;;5066770;28;20067;-81
2021/06/20 06:38:47;;;;;;;5.45;3.90;;;614.90;2432.00;;;;;;5072021;28;20028;-82
2021/06/20 06:41:16;;;;;;;5.82;3.83;;;614.60;2432.00;;;;;;5064058;28;20167;-73
2021/06/20 06:43:42;;;;;;;5.03;4.00;;;614.40;2432.00;;;;;;5071682;28;20044;-78
2021/06/20 06:46:07;;;;;;;6.57;4.78;;;589.60;2432.00;;;;;;5061996;28;20021;-76
2021/06/20 06:48:33;;;;;;;5.03;3.72;;;589.60;2432.00;;;;;;5071235;28;20074;-77
2021/06/20 06:50:59;;;;;;;5.32;3.65;;;614.50;2432.00;;;;;;5071903;28;20462;-71
2021/06/20 06:53:24;;;;;;;5.50;3.78;;;614.90;2432.00;;;;;;5067912;28;20021;-78
2021/06/20 06:55:50;;;;;;;7.75;3.88;;;614.90;2432.00;;;;;;5071855;28;20086;-77
2021/06/20 06:58:16;;;;;;;5.97;4.03;;;614.80;2432.00;;;;;;5061796;28;20143;-77
2021/06/20 07:00:42;;;;;;;5.55;3.80;;;614.90;2432.00;;;;;;5071982;28;20078;-80
2021/06/20 07:03:07;;;;;;;6.10;4.22;;;614.90;2432.00;;;;;;5068006;28;20029;-76
2021/06/20 07:05:33;;;;;;;3.95;3.20;;;615.00;2432.00;;;;;;5056339;28;20073;-76
2021/06/20 07:07:59;;;;;;;4.15;3.00;;;640.10;2432.00;;;;;;5064828;28;20113;-72
2021/06/20 07:10:24;;;;;;;4.50;3.20;;;640.40;2432.00;;;;;;5067589;28;20174;-76
2021/06/20 07:12:50;;;;;;;4.30;3.35;;;640.20;2432.00;;;;;;5069754;28;20471;-78
2021/06/20 07:15:16;;;;;;;4.65;3.13;;;615.20;2432.00;;;;;;5058248;28;20390;-70
2021/06/20 07:17:42;;;;;;;4.53;3.40;;;640.30;2432.00;;;;;;5054265;28;20345;-70
2021/06/20 07:20:14;;;;;;;5.20;3.20;;;640.20;2432.00;;;;;;5051421;28;20032;-71
2021/06/20 07:22:40;;;;;;;5.05;3.03;;;640.60;2432.00;;;;;;5059397;28;20094;-76
2021/06/20 07:25:06;;;;;;;4.57;3.10;;;640.00;2432.00;;;;;;5071167;28;20474;-77
2021/06/20 07:27:35;;;;;;;3.55;2.92;;;640.10;2432.00;;;;;;5062667;28;20027;-74
2021/06/20 07:30:12;;;;;;;4.95;3.00;;;640.70;2432.00;;;;;;5069049;28;20032;-73
2021/06/20 07:32:38;;;;;;;5.13;3.58;;;665.60;2432.00;;;;;;5057833;28;20029;-71
2021/06/20 07:35:06;;;;;;;4.43;3.30;;;640.60;2432.00;;;;;;5063387;28;20037;-76
2021/06/20 07:37:32;;;;;;;4.43;3.13;;;640.50;2432.00;;;;;;5052896;28;20032;-76
2021/06/20 07:39:58;;;;;;;6.25;3.10;;;665.60;2432.00;;;;;;5049371;28;20025;-72
2021/06/20 07:42:25;;;;;;;4.18;3.35;;;665.90;2432.00;;;;;;5053650;28;20391;-78
2021/06/20 07:44:51;;;;;;;6.82;3.20;;;640.90;2432.00;;;;;;5066848;28;20036;-79
2021/06/20 07:47:17;;;;;;;5.15;3.00;;;640.60;2432.00;;;;;;5070748;28;20016;-79
2021/06/20 07:49:43;;;;;;;5.63;2.90;;;640.70;2432.00;;;;;;5044279;28;20502;-77
2021/06/20 07:52:09;;;;;;;3.80;2.90;;;665.90;2432.00;;;;;;5051585;28;20024;-72
2021/06/20 07:54:35;;;;;;;3.60;2.92;;;665.80;2432.00;;;;;;5058709;28;20044;-81
2021/06/20 07:57:00;;;;;;;4.65;3.20;;;666.00;2432.00;;;;;;5054756;28;20103;-74
2021/06/20 07:59:26;;;;;;;3.95;2.97;;;666.00;2432.00;;;;;;5072352;28;20024;-79
2021/06/20 08:01:52;;;;;;;4.00;3.20;;;666.00;2432.00;;;;;;5060276;28;20155;-78
2021/06/20 08:04:17;;;;;;;6.93;3.60;;;666.10;2432.00;;;;;;5074307;28;20027;-78
2021/06/20 08:06:43;;;;;;;3.88;3.10;;;666.00;2432.00;;;;;;5036361;28;20044;-75
2021/06/20 08:09:09;;;;;;;3.55;2.92;;;665.90;2432.00;;;;;;5059915;28;20044;-78
2021/06/20 08:11:35;;;;;;;4.13;3.30;;;665.90;2432.00;;;;;;5047694;28;20050;-74
2021/06/20 08:14:02;;;;;;;4.13;3.30;;;665.90;2432.00;;;;;;5060056;28;20020;-73
2021/06/20 08:16:29;;;;;;;4.45;3.17;;;666.50;2432.00;;;;;;5074112;28;20028;-72
2021/06/20 08:18:54;;;;;;;4.32;3.30;;;691.20;2432.00;;;;;;5063240;28;20020;-72
2021/06/20 08:21:20;;;;;;;4.75;3.53;;;691.20;2432.00;;;;;;5071997;28;20368;-75
2021/06/20 08:23:46;;;;;;;5.85;3.85;;;691.40;2432.00;;;;;;5055516;28;20037;-71
2021/06/20 08:26:12;;;;;;;4.20;3.50;;;691.60;2432.00;;;;;;5059197;28;20029;-72
2021/06/20 08:28:38;;;;;;;5.10;3.20;;;691.80;2432.00;;;;;;5068230;28;20089;-76
2021/06/20 08:31:04;;;;;;;3.83;3.05;;;691.90;2432.00;;;;;;5066868;28;20021;-72
2021/06/20 08:33:30;;;;;;;4.20;3.33;;;716.90;2432.00;;;;;;5073242;28;20027;-73
2021/06/20 08:35:55;;;;;;;4.32;3.22;;;716.80;2432.00;;;;;;5065761;28;20107;-72
2021/06/20 08:38:21;;;;;;;4.35;3.30;;;692.10;2432.00;;;;;;5072471;28;20024;-71
2021/06/20 08:40:47;;;;;;;4.20;3.20;;;717.10;2432.00;;;;;;5067212;28;20548;-76
2021/06/20 08:43:13;;;;;;;5.05;3.30;;;717.20;2432.00;;;;;;5070624;28;20104;-80
2021/06/20 08:45:39;;;;;;;3.80;3.00;;;717.20;2432.00;;;;;;5072749;28;20028;-79
2021/06/20 08:48:09;;;;;;;3.50;2.90;;;717.20;2432.00;;;;;;5057750;28;20475;-73
2021/06/20 08:50:35;;;;;;;4.25;3.20;;;716.80;2432.00;;;;;;5057416;28;20033;-73
2021/06/20 08:53:01;;;;;;;4.95;4.00;;;692.00;2432.00;;;;;;5059909;28;20070;-80
2021/06/20 08:55:27;;;;;;;3.90;3.15;;;717.20;2432.00;;;;;;5071666;28;20161;-72
2021/06/20 08:57:59;;;;;;;4.10;3.22;;;717.70;2432.00;;;;;;5068355;28;20238;-75
2021/06/20 09:00:26;;;;;;;4.75;3.60;;;717.10;2432.00;;;;;;5055565;28;20028;-73
2021/06/20 09:03:00;;;;;;;4.85;3.30;;;692.10;2432.00;;;;;;5073742;28;20031;-72
2021/06/20 09:05:26;;;;;;;4.57;3.60;;;691.60;2432.00;;;;;;5059906;28;20025;-76
2021/06/20 09:07:52;;;;;;;3.70;3.17;;;691.90;2432.00;;;;;;5051515;28;20580;-72
2021/06/20 09:10:21;;;;;;;4.72;3.20;;;717.10;2432.00;;;;;;5052302;28;20087;-73
2021/06/20 09:12:51;;;;;;;6.47;3.30;;;717.50;2432.00;;;;;;5054637;28;20025;-75
2021/06/20 09:15:20;;;;;;;5.05;3.42;;;717.70;2432.00;;;;;;5058499;28;20029;-77
2021/06/20 09:17:48;;;;;;;4.45;3.40;;;742.80;2432.00;;;;;;5067440;28;20044;-73
2021/06/20 09:20:14;;;;;;;5.28;3.58;;;743.10;2432.00;;;;;;5072711;28;20095;-74
2021/06/20 09:22:40;;;;;;;6.32;4.18;;;768.00;2432.00;;;;;;5067491;28;20108;-71
2021/06/20 09:25:14;;;;;;;5.63;4.13;;;768.10;2432.00;;;;;;5072761;28;20509;-71
2021/06/20 09:27:40;;;;;;;5.38;3.60;;;768.30;2432.00;;;;;;5061972;28;20500;-75
2021/06/20 09:30:10;;;;;;;4.90;3.40;;;768.40;2432.00;;;;;;5072732;28;20498;-75
2021/06/20 09:32:39;;;;;;;7.63;5.65;;;768.70;2432.00;;;;;;5070738;28;20020;-73
2021/06/20 09:35:05;;;;;;;5.13;4.05;;;768.90;2432.00;;;;;;5058905;28;20028;-72
2021/06/20 09:37:31;;;;;;;5.57;3.47;;;793.60;2432.00;;;;;;5069052;28;20101;-74
2021/06/20 09:39:57;;;;;;;3.90;3.30;;;793.90;2432.00;;;;;;5061292;28;20020;-72
2021/06/20 09:42:23;;;;;;;6.15;4.50;;;794.10;2432.00;;;;;;5071474;28;20057;-72
2021/06/20 09:44:54;;;;;;;5.65;3.67;;;794.00;2432.00;;;;;;5061551;28;20025;-71
2021/06/20 09:47:21;;;;;;;4.97;4.00;;;793.90;2432.00;;;;;;5073056;28;20095;-76
2021/06/20 09:49:49;;;;;;;5.82;4.15;;;793.90;2432.00;;;;;;5066265;28;20033;-81
2021/06/20 09:52:29;;;;;;;6.38;3.95;;;794.00;2432.00;;;;;;5071243;28;20457;-77
2021/06/20 09:54:57;;;;;;;4.30;3.20;;;793.70;2432.00;;;;;;5071574;28;20437;-75
2021/06/20 09:57:23;;;;;;;5.68;3.80;;;794.00;2432.00;;;;;;5065368;28;20260;-73
2021/06/20 09:59:56;;;;;;;5.40;3.80;;;794.00;2432.00;;;;;;5070675;28;20503;-71
2021/06/20 10:02:30;;;;;;;4.50;3.30;;;793.70;2432.00;;;;;;5055640;28;20111;-72
2021/06/20 10:04:57;;;;;;;5.07;3.70;;;768.90;2432.00;;;;;;5072200;28;20035;-71
2021/06/20 10:07:29;;;;;;;4.68;3.28;;;768.20;2432.00;;;;;;5065795;28;20020;-73
2021/06/20 10:09:58;;;;;;;4.22;3.40;;;768.50;2432.00;;;;;;5069487;28;20051;-73
2021/06/20 10:12:24;;;;;;;4.30;3.35;;;768.30;2432.00;;;;;;5069235;28;20028;-72
2021/06/20 10:14:55;;;;;;;3.97;3.50;;;768.70;2432.00;;;;;;5051942;28;20032;-77
2021/06/20 10:17:33;;;;;;;4.00;3.28;;;793.70;2432.00;;;;;;5062102;28;20031;-79
2021/06/20 10:20:04;;;;;;;5.68;3.67;;;793.90;2432.00;;;;;;5051953;28;20104;-76
2021/06/20 10:22:40;;;;;;;10.32;6.93;;;793.70;2432.00;;;;;;5050111;28;20021;-73
2021/06/20 10:25:09;;;;;;;5.60;4.10;;;793.80;2432.00;;;;;;5059849;28;20071;-78
2021/06/20 10:27:42;;;;;;;3.90;3.28;;;793.70;2432.00;;;;;;5059593;28;20024;-71
2021/06/20 10:30:16;;;;;;;4.80;3.58;;;794.00;2432.00;;;;;;5060837;28;20013;-72
2021/06/20 10:32:45;;;;;;;3.92;3.20;;;794.20;2432.00;;;;;;5058529;28;20423;-78
2021/06/20 10:35:24;;;;;;;4.35;3.50;;;794.20;2432.00;;;;;;5057528;28;20510;-74
2021/06/20 10:37:52;;;;;;;3.88;3.42;;;794.10;2432.00;;;;;;5054348;28;20033;-77
2021/06/20 10:40:29;;;;;;;4.65;3.83;;;794.20;2432.00;;;;;;5064516;28;20433;-73
2021/06/20 10:42:58;;;;;;;5.55;3.35;;;794.20;2432.00;;;;;;5062661;28;20020;-73
2021/06/20 10:45:36;;;;;;;5.60;3.50;;;794.50;2432.00;;;;;;5062454;28;20124;-73
2021/06/20 10:48:21;;;;;;;7.57;5.88;;;794.50;2432.00;;;;;;5064988;28;20028;-81
2021/06/20 10:50:53;;;;;;;5.72;4.15;;;794.50;2432.00;;;;;;5070621;28;20042;-79
2021/06/20 10:53:20;;;;;;;7.95;6.35;;;794.50;2432.00;;;;;;5068092;28;20052;-74
2021/06/20 10:55:51;;;;;;;5.10;3.70;;;794.50;2432.00;;;;;;5067412;28;20032;-73
2021/06/20 10:58:21;;;;;;;3.90;3.08;;;794.40;2432.00;;;;;;5064524;28;20029;-74
2021/06/20 11:00:49;;;;;;;3.80;2.85;;;794.50;2432.00;;;;;;5065956;28;20108;-74
2021/06/20 11:03:28;;;;;;;4.80;3.33;;;819.30;2432.00;;;;;;5071262;28;20029;-73
2021/06/20 11:06:10;;;;;;;4.80;3.00;;;819.30;2432.00;;;;;;5057860;28;20032;-74
2021/06/20 11:08:39;;;;;;;3.67;3.03;;;819.30;2432.00;;;;;;5039627;28;20032;-74
2021/06/20 11:11:11;;;;;;;5.13;3.10;;;819.30;2432.00;;;;;;5029770;28;20056;-75
2021/06/20 11:13:38;;;;;;;5.65;2.83;;;819.40;2432.00;;;;;;5043963;28;20020;-73
2021/06/20 11:16:06;;;;;;;5.15;3.70;;;819.50;2432.00;;;;;;5030987;28;20091;-73
2021/06/20 11:18:33;;;;;;;5.15;4.38;;;819.40;2432.00;;;;;;5039882;28;20040;-85
2021/06/20 11:20:59;;;;;;;4.57;2.90;;;819.20;2432.00;;;;;;5051447;28;20029;-73
2021/06/20 11:23:29;;;;;;;4.00;3.10;;;819.20;2432.00;;;;;;5031975;28;20400;-73
2021/06/20 11:26:00;;;;;;;4.50;4.00;;;819.20;2432.00;;;;;;5039223;28;20028;-74
2021/06/20 11:28:26;;;;;;;5.10;3.20;;;794.40;2432.00;;;;;;5037141;28;20108;-76
2021/06/20 11:31:04;;;;;;;9.18;6.28;;;794.50;2432.00;;;;;;5044376;28;20028;-68
2021/06/20 11:33:29;;;;;;;6.18;5.40;;;794.50;2432.00;;;;;;5047903;28;20492;-70
2021/06/20 11:35:55;;;;;;;5.85;4.60;;;794.50;2432.00;;;;;;5047331;28;20087;-70
2021/06/20 11:38:40;;;;;;;4.97;4.10;;;794.50;2432.00;;;;;;5040590;28;20499;-68
2021/06/20 11:41:20;;;;;;;4.70;3.05;;;794.40;2432.00;;;;;;5032003;28;20049;-69
2021/06/20 11:43:54;;;;;;;3.75;2.88;;;794.50;2432.00;;;;;;5036663;28;20053;-70
2021/06/20 11:46:22;;;;;;;4.65;2.85;;;819.30;2432.00;;;;;;5043757;28;20031;-68
2021/06/20 11:48:59;;;;;;;4.97;3.20;;;819.40;2432.00;;;;;;5044425;28;20021;-71
2021/06/20 11:51:28;;;;;;;4.05;3.13;;;819.30;2406.40;;;;;;5034445;28;20476;-71
2021/06/20 11:54:24;;;;;;;4.28;3.10;;;819.40;2432.00;;;;;;5051411;28;20029;-72
2021/06/20 11:56:53;;;;;;;4.38;2.78;;;819.60;2432.00;;;;;;5041343;28;20037;-71
2021/06/20 11:59:35;;;;;;;3.83;2.85;;;819.60;2432.00;;;;;;5051074;28;20028;-72
2021/06/20 12:02:03;;;;;;;3.90;2.90;;;819.50;2432.00;;;;;;5040679;28;20100;-72
2021/06/20 12:04:31;;;;;;;4.70;3.13;;;819.60;2432.00;;;;;;5031624;28;20034;-71
2021/06/20 12:07:01;;;;;;;3.58;2.90;;;819.80;2432.00;;;;;;5035431;28;20024;-72
2021/06/20 12:09:27;;;;;;;5.03;2.92;;;820.00;2380.80;;;;;;5030693;28;20038;-70
2021/06/20 12:12:05;;;;;;;4.57;3.08;;;820.10;2380.80;;;;;;5052472;28;115461;-71
2021/06/20 12:14:32;;;;;;;3.50;2.92;;;844.90;2380.80;;;;;;5061984;28;20028;-72
2021/06/20 12:16:59;;;;;;;3.97;2.85;;;819.80;2406.40;;;;;;5074133;28;20021;-72